createdAt,value
2022-12-10T00:01:48.840Z,93934.91
2022-12-10T00:04:17.128Z,93933.16
2022-12-10T00:06:45.089Z,93934.91
2022-12-10T00:09:14.046Z,93924.34
2022-12-10T00:11:41.880Z,93925.78
2022-12-10T00:14:10.207Z,93935.97
2022-12-10T00:16:39.839Z,93931.03
2022-12-10T00:19:07.787Z,93930.69
2022-12-10T00:21:36.591Z,93931.25
2022-12-10T00:24:05.138Z,93937.06
2022-12-10T00:26:34.253Z,93927.34
2022-12-10T00:29:02.413Z,93928.44
2022-12-10T00:31:32.160Z,93937.69
2022-12-10T00:34:02.847Z,93940.47
2022-12-10T00:36:33.197Z,93938.47
2022-12-10T00:39:01.616Z,93943.56
2022-12-10T00:41:29.827Z,93934.88
2022-12-10T00:43:57.676Z,93938.69
2022-12-10T00:46:25.750Z,93935.69
2022-12-10T00:48:53.559Z,93932.94
2022-12-10T00:51:23.591Z,93939.19
2022-12-10T00:53:52.644Z,93944.91
2022-12-10T00:56:21.199Z,93952.63
2022-12-10T00:58:49.441Z,93940.19
2022-12-10T01:01:19.021Z,93943.22
2022-12-10T01:03:47.272Z,93942.78
2022-12-10T01:06:16.115Z,93948.34
2022-12-10T01:08:45.709Z,93947.50
2022-12-10T01:11:14.247Z,93945.69
2022-12-10T01:13:42.434Z,93958.91
2022-12-10T01:16:11.814Z,93961.75
2022-12-10T01:18:40.059Z,93966.75
2022-12-10T01:21:09.549Z,93971.91
2022-12-10T01:23:38.583Z,93966.75
2022-12-10T01:26:09.061Z,93961.34
2022-12-10T01:28:38.422Z,93954.00
2022-12-10T01:31:07.477Z,93957.53
2022-12-10T01:33:35.705Z,93964.72
2022-12-10T01:36:04.460Z,93961.44
2022-12-10T01:38:32.232Z,93958.81
2022-12-10T01:41:00.265Z,93965.53
2022-12-10T01:43:29.521Z,93970.56
2022-12-10T01:45:57.359Z,93963.34
2022-12-10T01:48:25.252Z,93961.25
2022-12-10T01:50:53.019Z,93960.75
2022-12-10T01:53:21.019Z,93957.19
2022-12-10T01:55:50.287Z,93971.59
2022-12-10T01:58:19.414Z,93971.41
2022-12-10T02:00:53.589Z,93974.91
2022-12-10T02:03:24.411Z,93975.22
2022-12-10T02:05:57.819Z,93978.44
2022-12-10T02:08:28.105Z,93976.66
2022-12-10T02:11:00.232Z,93976.38
2022-12-10T02:13:30.364Z,93972.19
2022-12-10T02:16:02.385Z,93967.00
2022-12-10T02:18:33.682Z,93970.13
2022-12-10T02:21:04.191Z,93964.34
2022-12-10T02:23:35.956Z,93963.28
2022-12-10T02:26:06.986Z,93958.31
2022-12-10T02:28:38.870Z,93959.53
2022-12-10T02:31:11.617Z,93953.88
2022-12-10T02:33:42.516Z,93961.06
2022-12-10T02:36:11.866Z,93954.28
2022-12-10T02:38:41.912Z,93947.50
2022-12-10T02:41:15.569Z,93934.16
2022-12-10T02:43:45.497Z,93931.09
2022-12-10T02:46:14.982Z,93925.28
2022-12-10T02:48:43.829Z,93930.69
2022-12-10T02:51:11.576Z,93922.53
2022-12-10T02:53:43.210Z,93935.22
2022-12-10T02:56:15.631Z,93937.69
2022-12-10T02:58:53.545Z,93931.09
2022-12-10T03:01:28.320Z,93933.13
2022-12-10T03:03:58.591Z,93937.53
2022-12-10T03:06:30.141Z,93936.50
2022-12-10T03:09:01.752Z,93949.03
2022-12-10T03:11:29.847Z,93942.50
2022-12-10T03:14:01.180Z,93948.50
2022-12-10T03:16:33.381Z,93939.00
2022-12-10T03:19:03.383Z,93937.09
2022-12-10T03:21:32.297Z,93932.63
2022-12-10T03:24:00.669Z,93931.84
2022-12-10T03:26:29.447Z,93934.44
2022-12-10T03:29:00.457Z,93930.53
2022-12-10T03:31:28.825Z,93937.69
2022-12-10T03:33:58.301Z,93932.63
2022-12-10T03:36:26.795Z,93937.09
2022-12-10T03:38:55.252Z,93939.06
2022-12-10T03:41:23.054Z,93945.97
2022-12-10T03:43:55.133Z,93942.00
2022-12-10T03:46:23.599Z,93941.03
2022-12-10T03:48:52.008Z,93944.00
2022-12-10T03:51:21.258Z,93952.03
2022-12-10T03:53:50.673Z,93954.81
2022-12-10T03:56:18.663Z,93961.16
2022-12-10T03:58:46.547Z,93955.91
2022-12-10T04:01:14.713Z,93955.59
2022-12-10T04:03:43.512Z,93955.44
2022-12-10T04:06:12.425Z,93947.56
2022-12-10T04:08:41.657Z,93945.16
2022-12-10T04:11:11.141Z,93941.56
2022-12-10T04:13:57.100Z,93935.19
2022-12-10T04:16:31.449Z,93933.34
2022-12-10T04:19:01.291Z,93941.50
2022-12-10T04:21:48.064Z,93943.56
2022-12-10T04:24:35.953Z,93944.25
2022-12-10T04:27:05.412Z,93948.00
2022-12-10T04:29:33.233Z,93954.63
2022-12-10T04:32:01.241Z,93960.34
2022-12-10T04:34:29.116Z,93951.78
2022-12-10T04:36:57.081Z,93961.28
2022-12-10T04:39:26.393Z,93960.06
2022-12-10T04:41:54.317Z,93963.66
2022-12-10T04:44:22.168Z,93956.19
2022-12-10T04:46:50.468Z,93952.63
2022-12-10T04:49:18.374Z,93954.47
2022-12-10T04:51:46.688Z,93958.91
2022-12-10T04:54:15.057Z,93949.59
2022-12-10T04:56:44.627Z,93963.66
2022-12-10T04:59:12.742Z,93964.63
2022-12-10T05:01:40.683Z,93968.84
2022-12-10T05:04:09.545Z,93970.50
2022-12-10T05:06:37.601Z,93964.63
2022-12-10T05:09:07.177Z,93962.22
2022-12-10T05:11:35.492Z,93958.13
2022-12-10T05:14:04.678Z,93955.34
2022-12-10T05:16:33.338Z,93949.63
2022-12-10T05:19:01.253Z,93955.13
2022-12-10T05:21:50.880Z,93949.84
2022-12-10T05:24:18.542Z,93944.00
2022-12-10T05:26:46.476Z,93940.03
2022-12-10T05:29:15.679Z,93938.38
2022-12-10T05:31:43.559Z,93940.03
2022-12-10T05:34:12.085Z,93945.00
2022-12-10T05:36:40.007Z,93947.56
2022-12-10T05:39:07.834Z,93950.00
2022-12-10T05:41:36.799Z,93947.66
2022-12-10T05:44:05.602Z,93943.41
2022-12-10T05:46:36.414Z,93936.69
2022-12-10T05:49:06.031Z,93949.19
2022-12-10T05:51:35.241Z,93937.22
2022-12-10T05:54:04.475Z,93942.41
2022-12-10T05:56:32.576Z,93949.25
2022-12-10T05:59:01.115Z,93949.50
2022-12-10T06:01:29.644Z,93946.28
2022-12-10T06:03:59.866Z,93948.06
2022-12-10T06:06:28.800Z,93959.63
2022-12-10T06:08:57.656Z,93955.50
2022-12-10T06:11:27.420Z,93960.47
2022-12-10T06:13:56.580Z,93960.78
2022-12-10T06:16:25.552Z,93954.53
2022-12-10T06:18:53.475Z,93951.56
2022-12-10T06:21:23.049Z,93955.59
2022-12-10T06:23:52.328Z,93963.59
2022-12-10T06:26:22.131Z,93965.38
2022-12-10T06:28:50.421Z,93972.09
2022-12-10T06:31:18.690Z,93985.44
2022-12-10T06:33:47.082Z,93982.47
2022-12-10T06:36:16.706Z,93982.25
2022-12-10T06:38:45.899Z,93984.63
2022-12-10T06:41:14.413Z,93981.66
2022-12-10T06:43:42.482Z,93984.81
2022-12-10T06:46:11.746Z,93992.84
2022-12-10T06:48:39.784Z,93994.28
2022-12-10T06:51:07.965Z,93991.19
2022-12-10T06:53:36.664Z,94004.34
2022-12-10T06:56:07.254Z,94001.78
2022-12-10T06:58:35.624Z,93998.88
2022-12-10T07:01:05.170Z,93999.97
2022-12-10T07:03:32.981Z,93999.03
2022-12-10T07:06:01.124Z,93992.44
2022-12-10T07:08:29.397Z,94003.06
2022-12-10T07:10:57.613Z,94009.72
2022-12-10T07:13:30.800Z,94004.41
2022-12-10T07:15:59.103Z,94001.78
2022-12-10T07:18:28.392Z,94006.56
2022-12-10T07:20:56.235Z,94012.22
2022-12-10T07:23:24.078Z,94010.41
2022-12-10T07:25:56.047Z,94016.41
2022-12-10T07:28:24.015Z,94029.59
2022-12-10T07:30:53.237Z,94021.44
2022-12-10T07:33:21.332Z,94016.06
2022-12-10T07:35:49.475Z,94018.03
2022-12-10T07:38:17.400Z,94010.63
2022-12-10T07:40:45.362Z,94007.25
2022-12-10T07:43:13.850Z,94011.84
2022-12-10T07:45:41.709Z,94012.88
2022-12-10T07:48:10.896Z,94011.03
2022-12-10T07:50:38.792Z,94011.84
2022-12-10T07:53:07.335Z,94014.47
2022-12-10T07:55:35.289Z,94017.63
2022-12-10T07:58:03.226Z,94021.78
2022-12-10T08:00:31.255Z,94022.25
2022-12-10T08:02:59.511Z,94024.16
2022-12-10T08:05:28.817Z,94019.72
2022-12-10T08:08:02.000Z,94018.31
2022-12-10T08:10:32.004Z,94011.59
2022-12-10T08:12:59.870Z,94009.97
2022-12-10T08:15:29.114Z,94004.53
2022-12-10T08:17:57.258Z,94006.66
2022-12-10T08:20:25.569Z,94007.19
2022-12-10T08:22:54.796Z,94015.97
2022-12-10T08:25:22.660Z,94016.03
2022-12-10T08:27:50.530Z,94014.13
2022-12-10T08:30:18.421Z,94010.09
2022-12-10T08:32:46.232Z,94017.59
2022-12-10T08:35:14.055Z,94012.19
2022-12-10T08:37:43.121Z,94011.53
2022-12-10T08:40:13.025Z,94026.50
2022-12-10T08:42:41.012Z,94024.75
2022-12-10T08:45:09.252Z,94031.53
2022-12-10T08:47:37.104Z,94031.50
2022-12-10T08:50:07.292Z,94024.94
2022-12-10T08:52:35.447Z,94027.91
2022-12-10T08:55:03.341Z,94024.94
2022-12-10T08:57:32.580Z,94016.44
2022-12-10T09:00:00.447Z,94015.72
2022-12-10T09:02:28.619Z,94018.66
2022-12-10T09:04:56.586Z,94024.38
2022-12-10T09:07:24.398Z,94029.00
2022-12-10T09:09:52.230Z,94027.72
2022-12-10T09:12:20.102Z,94034.66
2022-12-10T09:14:49.942Z,94028.31
2022-12-10T09:17:17.805Z,94044.00
2022-12-10T09:19:45.729Z,94052.78
2022-12-10T09:22:13.507Z,94047.06
2022-12-10T09:24:41.343Z,94048.22
2022-12-10T09:27:09.303Z,94046.44
2022-12-10T09:29:37.018Z,94039.53
2022-12-10T09:32:06.426Z,94038.88
2022-12-10T09:34:34.383Z,94036.31
2022-12-10T09:37:02.258Z,94048.13
2022-12-10T09:39:30.078Z,94047.16
2022-12-10T09:42:08.695Z,94047.94
2022-12-10T09:44:44.358Z,94058.78
2022-12-10T09:47:14.503Z,94056.84
2022-12-10T09:49:48.686Z,94067.75
2022-12-10T09:52:19.101Z,94061.44
2022-12-10T09:54:49.829Z,94059.59
2022-12-10T09:57:21.330Z,94053.94
2022-12-10T09:59:50.837Z,94055.06
2022-12-10T10:02:24.898Z,94058.97
2022-12-10T10:04:53.751Z,94056.69
2022-12-10T10:07:23.674Z,94049.84
2022-12-10T10:09:52.793Z,94045.28
2022-12-10T10:12:20.647Z,94044.75
2022-12-10T10:14:48.680Z,94048.78
2022-12-10T10:17:19.264Z,94054.25
2022-12-10T10:19:50.205Z,94049.25
2022-12-10T10:22:18.121Z,94057.59
2022-12-10T10:24:47.477Z,94052.19
2022-12-10T10:27:16.821Z,94054.34
2022-12-10T10:29:45.670Z,94052.38
2022-12-10T10:32:15.917Z,94052.66
2022-12-10T10:34:44.346Z,94052.88
2022-12-10T10:37:18.892Z,94052.56
2022-12-10T10:39:49.545Z,94052.22
2022-12-10T10:42:24.353Z,94054.56
2022-12-10T10:44:52.429Z,94053.84
2022-12-10T10:47:34.442Z,94051.31
2022-12-10T10:50:03.404Z,94038.53
2022-12-10T10:52:36.859Z,94041.59
2022-12-10T10:55:04.936Z,94046.03
2022-12-10T10:57:37.141Z,94051.50
2022-12-10T11:00:12.702Z,94050.41
2022-12-10T11:02:43.862Z,94045.81
2022-12-10T11:05:18.630Z,94046.13
2022-12-10T11:07:48.043Z,94046.75
2022-12-10T11:10:20.142Z,94053.59
2022-12-10T11:12:55.791Z,94055.28
2022-12-10T11:15:31.356Z,94052.25
2022-12-10T11:17:59.595Z,94049.91
2022-12-10T11:20:28.776Z,94038.78
2022-12-10T11:22:58.911Z,94036.72
2022-12-10T11:25:33.964Z,94037.53
2022-12-10T11:28:06.815Z,94037.81
2022-12-10T11:30:38.332Z,94046.09
2022-12-10T11:33:14.823Z,94038.50
2022-12-10T11:35:51.897Z,94043.84
2022-12-10T11:38:25.485Z,94040.19
2022-12-10T11:40:55.878Z,94041.03
2022-12-10T11:43:44.463Z,94039.56
2022-12-10T11:46:22.311Z,94044.84
2022-12-10T11:48:57.949Z,94050.75
2022-12-10T11:51:31.812Z,94050.94
2022-12-10T11:54:08.640Z,94057.09
2022-12-10T11:56:39.770Z,94055.09
2022-12-10T11:59:15.196Z,94037.84
2022-12-10T12:01:54.237Z,94042.16
2022-12-10T12:04:27.425Z,94035.41
2022-12-10T12:07:03.866Z,94044.94
2022-12-10T12:09:39.839Z,94045.06
2022-12-10T12:12:13.287Z,94049.81
2022-12-10T12:14:43.445Z,94058.84
2022-12-10T12:17:14.891Z,94057.25
2022-12-10T12:19:47.047Z,94066.47
2022-12-10T12:22:17.267Z,94073.78
2022-12-10T12:24:49.173Z,94080.84
2022-12-10T12:27:23.479Z,94076.41
2022-12-10T12:29:59.048Z,94071.03
2022-12-10T12:32:27.924Z,94077.09
2022-12-10T12:35:01.091Z,94082.19
2022-12-10T12:37:32.133Z,94086.81
2022-12-10T12:40:04.822Z,94088.31
2022-12-10T12:42:37.187Z,94086.56
2022-12-10T12:45:10.365Z,94088.63
2022-12-10T12:47:42.929Z,94082.31
2022-12-10T12:50:17.859Z,94086.88
2022-12-10T12:52:51.039Z,94094.88
2022-12-10T12:55:22.827Z,94090.59
2022-12-10T12:57:54.873Z,94097.91
2022-12-10T13:00:24.500Z,94097.78
2022-12-10T13:03:00.578Z,94107.25
2022-12-10T13:05:31.010Z,94110.84
2022-12-10T13:08:26.075Z,94108.53
2022-12-10T13:10:58.694Z,94107.78
2022-12-10T13:13:30.013Z,94111.19
2022-12-10T13:15:57.888Z,94104.31
2022-12-10T13:18:36.908Z,94111.38
2022-12-10T13:21:23.649Z,94119.25
2022-12-10T13:23:54.029Z,94121.97
2022-12-10T13:26:28.607Z,94130.66
2022-12-10T13:28:57.382Z,94131.81
2022-12-10T13:31:38.562Z,94128.34
2022-12-10T13:34:09.247Z,94144.94
2022-12-10T13:36:38.040Z,94151.81
2022-12-10T13:39:23.019Z,94154.38
2022-12-10T13:42:34.556Z,94153.25
2022-12-10T13:45:05.190Z,94158.94
2022-12-10T13:47:34.766Z,94165.47
2022-12-10T13:50:04.939Z,94165.06
2022-12-10T13:52:34.985Z,94169.09
2022-12-10T13:55:22.846Z,94171.53
2022-12-10T13:57:58.382Z,94165.53
2022-12-10T14:00:33.873Z,94168.19
2022-12-10T14:03:19.672Z,94176.84
2022-12-10T14:05:59.709Z,94183.91
2022-12-10T14:08:29.352Z,94184.66
2022-12-10T14:10:58.700Z,94186.50
2022-12-10T14:13:32.938Z,94193.16
2022-12-10T14:16:03.123Z,94205.44
2022-12-10T14:18:31.591Z,94200.59
2022-12-10T14:20:59.869Z,94206.03
2022-12-10T14:23:34.840Z,94208.06
2022-12-10T14:26:06.169Z,94225.88
2022-12-10T14:28:34.360Z,94217.47
2022-12-10T14:31:03.968Z,94223.66
2022-12-10T14:33:32.126Z,94226.75
2022-12-10T14:36:00.420Z,94231.06
2022-12-10T14:38:31.452Z,94234.38
2022-12-10T14:40:59.298Z,94238.50
2022-12-10T14:43:31.874Z,94243.53
2022-12-10T14:46:01.350Z,94250.56
2022-12-10T14:48:30.625Z,94253.41
2022-12-10T14:51:04.933Z,94256.81
2022-12-10T14:53:33.549Z,94266.59
2022-12-10T14:56:03.763Z,94262.22
2022-12-10T14:58:40.080Z,94259.63
2022-12-10T15:01:17.258Z,94259.59
2022-12-10T15:03:48.656Z,94266.97
2022-12-10T15:06:18.473Z,94269.53
2022-12-10T15:08:47.191Z,94274.75
2022-12-10T15:11:17.968Z,94269.00
2022-12-10T15:13:47.592Z,94277.34
2022-12-10T15:16:18.937Z,94276.56
2022-12-10T15:18:48.972Z,94283.78
2022-12-10T15:21:18.422Z,94284.94
2022-12-10T15:23:47.077Z,94287.16
2022-12-10T15:26:17.726Z,94288.94
2022-12-10T15:28:45.740Z,94297.72
2022-12-10T15:31:15.046Z,94285.56
2022-12-10T15:33:44.187Z,94284.16
2022-12-10T15:36:18.978Z,94286.16
2022-12-10T15:38:47.040Z,94293.75
2022-12-10T15:41:36.401Z,94283.56
2022-12-10T15:44:05.496Z,94287.34
2022-12-10T15:46:33.796Z,94286.16
2022-12-10T15:49:01.714Z,94292.34
2022-12-10T15:51:30.951Z,94301.91
2022-12-10T15:53:58.745Z,94302.50
2022-12-10T15:56:26.526Z,94303.69
2022-12-10T15:58:54.391Z,94301.72
2022-12-10T16:01:22.218Z,94306.50
2022-12-10T16:03:50.278Z,94306.69
2022-12-10T16:06:20.126Z,94320.09
2022-12-10T16:08:49.441Z,94327.84
2022-12-10T16:11:19.301Z,94328.81
2022-12-10T16:13:49.998Z,94329.03
2022-12-10T16:16:18.611Z,94327.66
2022-12-10T16:18:46.868Z,94323.66
2022-12-10T16:21:14.709Z,94325.47
2022-12-10T16:23:42.580Z,94334.00
2022-12-10T16:26:14.388Z,94334.88
2022-12-10T16:28:42.304Z,94343.63
2022-12-10T16:31:12.471Z,94338.84
2022-12-10T16:33:40.637Z,94336.94
2022-12-10T16:36:08.722Z,94338.63
2022-12-10T16:38:36.604Z,94342.97
2022-12-10T16:41:05.345Z,94344.97
2022-12-10T16:43:34.534Z,94348.59
2022-12-10T16:46:02.992Z,94344.44
2022-12-10T16:48:30.910Z,94352.59
2022-12-10T16:51:06.461Z,94344.22
2022-12-10T16:53:36.839Z,94348.22
2022-12-10T16:56:06.125Z,94353.41
2022-12-10T16:58:35.310Z,94356.22
2022-12-10T17:01:03.188Z,94351.44
2022-12-10T17:03:32.518Z,94357.38
2022-12-10T17:06:01.279Z,94369.38
2022-12-10T17:08:30.086Z,94362.81
2022-12-10T17:11:16.239Z,94363.22
2022-12-10T17:13:46.220Z,94367.63
2022-12-10T17:16:15.763Z,94375.59
2022-12-10T17:18:43.702Z,94372.19
2022-12-10T17:21:11.571Z,94371.59
2022-12-10T17:23:39.769Z,94375.78
2022-12-10T17:26:07.953Z,94376.78
2022-12-10T17:28:35.817Z,94382.78
2022-12-10T17:31:04.943Z,94386.38
2022-12-10T17:33:32.779Z,94388.75
2022-12-10T17:36:00.581Z,94388.75
2022-12-10T17:38:28.396Z,94387.00
2022-12-10T17:40:56.286Z,94391.34
2022-12-10T17:43:25.379Z,94386.78
2022-12-10T17:45:53.352Z,94381.81
2022-12-10T17:48:22.844Z,94390.59
2022-12-10T17:50:50.997Z,94391.94
2022-12-10T17:53:19.054Z,94397.16
2022-12-10T17:55:49.378Z,94392.75
2022-12-10T17:58:17.235Z,94391.97
2022-12-10T18:00:45.606Z,94396.16
2022-12-10T18:03:13.456Z,94389.19
2022-12-10T18:05:42.784Z,94399.56
2022-12-10T18:08:11.177Z,94394.94
2022-12-10T18:10:39.956Z,94401.34
2022-12-10T18:13:07.753Z,94395.16
2022-12-10T18:15:36.838Z,94395.34
2022-12-10T18:18:04.838Z,94402.16
2022-12-10T18:20:33.832Z,94398.75
2022-12-10T18:23:04.146Z,94400.16
2022-12-10T18:25:32.043Z,94397.38
2022-12-10T18:28:02.129Z,94400.97
2022-12-10T18:30:31.447Z,94407.53
2022-12-10T18:32:59.439Z,94399.97
2022-12-10T18:35:30.504Z,94406.50
2022-12-10T18:37:58.356Z,94415.50
2022-12-10T18:40:27.490Z,94415.88
2022-12-10T18:42:55.233Z,94419.72
2022-12-10T18:45:23.248Z,94426.09
2022-12-10T18:47:53.368Z,94417.72
2022-12-10T18:50:25.927Z,94415.13
2022-12-10T18:52:54.278Z,94418.94
2022-12-10T18:55:24.019Z,94423.13
2022-12-10T18:58:04.453Z,94428.53
2022-12-10T19:00:36.605Z,94433.53
2022-12-10T19:03:04.565Z,94424.31
2022-12-10T19:05:32.654Z,94427.47
2022-12-10T19:08:00.508Z,94427.31
2022-12-10T19:10:28.481Z,94423.88
2022-12-10T19:12:57.680Z,94428.47
2022-12-10T19:15:25.665Z,94426.28
2022-12-10T19:17:53.456Z,94420.09
2022-12-10T19:20:23.021Z,94418.28
2022-12-10T19:22:51.743Z,94423.09
2022-12-10T19:25:20.264Z,94422.09
2022-12-10T19:27:48.201Z,94423.09
2022-12-10T19:30:18.828Z,94436.22
2022-12-10T19:32:46.935Z,94433.44
2022-12-10T19:35:15.412Z,94433.66
2022-12-10T19:37:44.745Z,94431.47
2022-12-10T19:40:16.961Z,94431.66
2022-12-10T19:42:44.846Z,94430.88
2022-12-10T19:45:12.988Z,94427.44
2022-12-10T19:47:42.512Z,94430.78
2022-12-10T19:50:14.366Z,94426.84
2022-12-10T19:52:42.511Z,94427.78
2022-12-10T19:55:11.163Z,94428.78
2022-12-10T19:57:39.249Z,94425.81
2022-12-10T20:00:10.788Z,94433.03
2022-12-10T20:02:40.370Z,94437.78
2022-12-10T20:05:15.063Z,94437.56
2022-12-10T20:07:45.080Z,94439.41
2022-12-10T20:10:18.632Z,94445.53
2022-12-10T20:12:46.772Z,94441.72
2022-12-10T20:15:14.655Z,94440.03
2022-12-10T20:17:42.516Z,94450.91
2022-12-10T20:20:16.411Z,94448.75
2022-12-10T20:22:44.246Z,94451.69
2022-12-10T20:25:12.535Z,94447.16
2022-12-10T20:27:41.094Z,94450.28
2022-12-10T20:30:09.413Z,94448.97
2022-12-10T20:32:37.203Z,94449.09
2022-12-10T20:35:05.118Z,94450.22
2022-12-10T20:37:34.566Z,94437.44
2022-12-10T20:40:30.253Z,94435.19
2022-12-10T20:42:50.524Z,94440.38
2022-12-10T20:45:18.857Z,94443.91
2022-12-10T20:47:48.066Z,94447.16
2022-12-10T20:50:16.921Z,94452.75
2022-12-10T20:52:46.727Z,94453.69
2022-12-10T20:55:15.135Z,94455.69
2022-12-10T20:57:42.982Z,94456.31
2022-12-10T21:00:16.413Z,94459.94
2022-12-10T21:02:44.964Z,94463.09
2022-12-10T21:05:13.289Z,94460.31
2022-12-10T21:07:41.323Z,94464.44
2022-12-10T21:10:35.593Z,94467.09
2022-12-10T21:13:04.302Z,94469.53
2022-12-10T21:15:32.554Z,94471.25
2022-12-10T21:18:01.177Z,94473.88
2022-12-10T21:20:29.871Z,94465.47
2022-12-10T21:22:59.226Z,94462.09
2022-12-10T21:25:28.650Z,94460.94
2022-12-10T21:27:56.718Z,94456.94
2022-12-10T21:30:25.147Z,94461.94
2022-12-10T21:32:53.441Z,94461.75
2022-12-10T21:35:21.761Z,94456.16
2022-12-10T21:37:49.627Z,94457.53
2022-12-10T21:40:18.093Z,94462.28
2022-12-10T21:43:04.919Z,94457.66
2022-12-10T21:45:33.287Z,94459.66
2022-12-10T21:48:02.219Z,94454.47
2022-12-10T21:50:30.684Z,94453.69
2022-12-10T21:52:58.574Z,94455.91
2022-12-10T21:55:30.275Z,94455.09
2022-12-10T21:58:00.251Z,94449.22
2022-12-10T22:00:28.206Z,94447.59
2022-12-10T22:02:56.689Z,94458.03
2022-12-10T22:05:24.763Z,94452.25
2022-12-10T22:07:52.706Z,94458.19
2022-12-10T22:10:20.642Z,94459.59
2022-12-10T22:12:48.443Z,94450.44
2022-12-10T22:15:17.617Z,94453.94
2022-12-10T22:17:45.426Z,94459.00
2022-12-10T22:20:13.300Z,94459.75
2022-12-10T22:22:41.101Z,94465.75
2022-12-10T22:25:09.929Z,94461.13
2022-12-10T22:27:38.301Z,94462.25
2022-12-10T22:30:07.087Z,94458.16
2022-12-10T22:32:36.307Z,94448.50
2022-12-10T22:35:04.379Z,94443.81
2022-12-10T22:37:32.250Z,94455.41
2022-12-10T22:40:05.483Z,94454.25
2022-12-10T22:42:33.600Z,94465.28
2022-12-10T22:45:01.446Z,94460.41
2022-12-10T22:47:29.652Z,94460.06
2022-12-10T22:49:58.952Z,94454.19
2022-12-10T22:52:26.860Z,94453.38
2022-12-10T22:54:54.715Z,94457.31
2022-12-10T22:57:22.907Z,94457.47
2022-12-10T22:59:50.684Z,94458.19
2022-12-10T23:02:18.777Z,94462.38
2022-12-10T23:04:49.133Z,94457.28
2022-12-10T23:07:18.498Z,94456.06
2022-12-10T23:09:47.071Z,94450.59
2022-12-10T23:12:32.647Z,94452.66
2022-12-10T23:15:00.581Z,94459.72
2022-12-10T23:17:28.435Z,94451.81
2022-12-10T23:19:59.132Z,94454.59
2022-12-10T23:22:29.195Z,94453.59
2022-12-10T23:24:57.061Z,94454.72
2022-12-10T23:27:25.028Z,94453.56
2022-12-10T23:29:53.139Z,94447.06
2022-12-10T23:32:21.018Z,94443.31
2022-12-10T23:34:48.989Z,94457.59
2022-12-10T23:37:16.783Z,94451.38
2022-12-10T23:39:46.002Z,94451.19
2022-12-10T23:42:14.044Z,94452.44
2022-12-10T23:44:42.185Z,94456.31
2022-12-10T23:47:10.024Z,94461.59
2022-12-10T23:49:37.937Z,94462.63
2022-12-10T23:52:09.577Z,94469.91
2022-12-10T23:54:38.283Z,94458.06
2022-12-10T23:57:07.533Z,94451.53
2022-12-10T23:59:35.522Z,94454.22
